createdAt,value
2023-05-22T00:00:41.556Z,72.51
2023-05-22T00:03:08.827Z,71.94
2023-05-22T00:05:39.354Z,72.55
2023-05-22T00:08:11.958Z,71.96
2023-05-22T00:10:39.732Z,72.50
2023-05-22T00:13:06.986Z,72.91
2023-05-22T00:15:34.047Z,73.10
2023-05-22T00:18:00.802Z,72.50
2023-05-22T00:20:28.074Z,73.01
2023-05-22T00:22:57.175Z,73.07
2023-05-22T00:25:24.372Z,73.40
2023-05-22T00:27:51.609Z,73.30
2023-05-22T00:30:18.686Z,72.31
2023-05-22T00:32:45.721Z,73.42
2023-05-22T00:35:13.105Z,73.41
2023-05-22T00:37:40.183Z,72.90
2023-05-22T00:40:08.707Z,73.90
2023-05-22T00:42:35.806Z,74.42
2023-05-22T00:45:02.772Z,74.06
2023-05-22T00:47:30.098Z,74.46
2023-05-22T00:49:57.076Z,74.24
2023-05-22T00:52:24.377Z,74.43
2023-05-22T00:54:54.363Z,74.29
2023-05-22T00:57:24.856Z,74.17
2023-05-22T00:59:52.566Z,74.10
2023-05-22T01:02:20.401Z,74.38
2023-05-22T01:04:51.151Z,74.32
2023-05-22T01:07:18.089Z,74.85
2023-05-22T01:09:45.173Z,75.25
2023-05-22T01:12:27.892Z,75.32
2023-05-22T01:15:24.801Z,74.84
2023-05-22T01:18:19.952Z,74.42
2023-05-22T01:20:58.548Z,74.89
2023-05-22T01:23:44.015Z,75.17
2023-05-22T01:26:16.926Z,75.11
2023-05-22T01:29:11.748Z,75.27
2023-05-22T01:31:43.506Z,75.77
2023-05-22T01:34:14.820Z,75.90
2023-05-22T01:36:46.295Z,75.71
2023-05-22T01:39:14.962Z,76.10
2023-05-22T01:41:42.197Z,75.65
2023-05-22T01:44:09.276Z,75.89
2023-05-22T01:46:36.437Z,76.31
2023-05-22T01:49:03.631Z,76.18
2023-05-22T01:51:53.898Z,76.42
2023-05-22T01:54:53.818Z,76.54
2023-05-22T01:57:44.535Z,76.66
2023-05-22T02:00:15.427Z,76.87
2023-05-22T02:02:48.807Z,76.71
2023-05-22T02:05:19.004Z,76.78
2023-05-22T02:07:47.859Z,77.16
2023-05-22T02:10:16.306Z,77.11
2023-05-22T02:12:43.795Z,77.06
2023-05-22T02:15:11.693Z,77.15
2023-05-22T02:17:42.123Z,76.70
2023-05-22T02:20:15.620Z,76.99
2023-05-22T02:22:46.815Z,77.29
2023-05-22T02:25:17.682Z,77.10
2023-05-22T02:27:47.157Z,77.25
2023-05-22T02:30:15.392Z,77.64
2023-05-22T02:32:42.630Z,77.29
2023-05-22T02:35:10.560Z,77.68
2023-05-22T02:37:37.816Z,76.53
2023-05-22T02:40:08.281Z,77.14
2023-05-22T02:42:35.597Z,76.63
2023-05-22T02:45:03.117Z,77.14
2023-05-22T02:47:30.169Z,76.69
2023-05-22T02:49:58.190Z,76.77
2023-05-22T02:52:25.739Z,76.84
2023-05-22T02:54:53.029Z,76.47
2023-05-22T02:57:19.985Z,76.48
2023-05-22T02:59:46.841Z,76.64
2023-05-22T03:02:15.231Z,76.97
2023-05-22T03:04:42.543Z,76.59
2023-05-22T03:07:09.439Z,76.32
2023-05-22T03:09:36.516Z,76.58
2023-05-22T03:12:03.665Z,76.08
2023-05-22T03:14:30.583Z,76.49
2023-05-22T03:16:59.089Z,75.96
2023-05-22T03:19:26.857Z,76.02
2023-05-22T03:21:54.106Z,75.86
2023-05-22T03:24:21.354Z,75.45
2023-05-22T03:26:48.332Z,75.51
2023-05-22T03:29:15.316Z,75.31
2023-05-22T03:31:42.394Z,75.13
2023-05-22T03:34:09.405Z,74.79
2023-05-22T03:36:36.562Z,75.16
2023-05-22T03:39:04.002Z,74.88
2023-05-22T03:41:31.367Z,74.57
2023-05-22T03:43:59.003Z,74.54
2023-05-22T03:46:26.681Z,74.34
2023-05-22T03:48:53.763Z,74.46
2023-05-22T03:51:21.012Z,73.88
2023-05-22T03:53:48.084Z,73.55
2023-05-22T03:56:15.295Z,72.93
2023-05-22T03:58:42.202Z,73.20
2023-05-22T04:01:10.312Z,72.99
2023-05-22T04:03:38.077Z,72.32
2023-05-22T04:06:06.037Z,72.19
2023-05-22T04:08:33.414Z,71.58
2023-05-22T04:11:00.776Z,71.28
2023-05-22T04:13:27.902Z,70.73
2023-05-22T04:15:57.042Z,70.24
2023-05-22T04:18:24.157Z,69.03
2023-05-22T04:20:52.119Z,68.51
2023-05-22T04:23:19.307Z,68.20
2023-05-22T04:25:48.185Z,67.30
2023-05-22T04:28:17.795Z,66.79
2023-05-22T04:30:44.982Z,65.46
2023-05-22T04:33:12.848Z,63.23
2023-05-22T04:35:41.203Z,62.33
2023-05-22T04:38:08.702Z,60.55
2023-05-22T04:40:38.368Z,57.42
2023-05-22T04:43:05.869Z,56.74
2023-05-22T04:45:33.171Z,56.50
2023-05-22T04:48:02.928Z,58.83
2023-05-22T04:50:33.149Z,59.99
2023-05-22T04:53:00.525Z,60.20
2023-05-22T04:55:34.388Z,60.22
2023-05-22T04:58:01.261Z,60.41
2023-05-22T05:00:30.053Z,60.42
2023-05-22T05:02:57.745Z,61.30
2023-05-22T05:05:25.162Z,61.91
2023-05-22T05:07:53.472Z,62.46
2023-05-22T05:10:20.736Z,61.69
2023-05-22T05:12:47.802Z,61.25
2023-05-22T05:15:14.904Z,61.72
2023-05-22T05:17:41.828Z,61.56
2023-05-22T05:20:09.554Z,60.63
2023-05-22T05:22:37.695Z,59.54
2023-05-22T05:25:05.835Z,58.63
2023-05-22T05:27:33.074Z,57.28
2023-05-22T05:30:00.596Z,55.99
2023-05-22T05:32:28.039Z,55.75
2023-05-22T05:34:55.210Z,54.93
2023-05-22T05:37:22.837Z,54.36
2023-05-22T05:39:49.869Z,54.76
2023-05-22T05:42:18.202Z,54.35
2023-05-22T05:44:45.216Z,55.19
2023-05-22T05:47:12.506Z,56.10
2023-05-22T05:49:39.512Z,54.95
2023-05-22T05:52:06.892Z,55.60
2023-05-22T05:54:33.756Z,56.01
2023-05-22T05:57:00.777Z,56.23
2023-05-22T05:59:27.720Z,55.44
2023-05-22T06:01:54.816Z,55.05
2023-05-22T06:04:22.165Z,54.98
2023-05-22T06:06:48.957Z,54.52
2023-05-22T06:09:16.665Z,54.83
2023-05-22T06:11:43.666Z,54.48
2023-05-22T06:14:11.322Z,53.57
2023-05-22T06:16:38.401Z,53.66
2023-05-22T06:19:05.586Z,53.58
2023-05-22T06:21:32.606Z,54.09
2023-05-22T06:23:59.626Z,54.00
2023-05-22T06:26:26.440Z,53.09
2023-05-22T06:28:54.695Z,52.84
2023-05-22T06:31:23.120Z,52.80
2023-05-22T06:33:50.596Z,52.83
2023-05-22T06:36:17.746Z,52.19
2023-05-22T06:38:46.312Z,51.55
2023-05-22T06:41:13.413Z,50.74
2023-05-22T06:43:40.384Z,49.51
2023-05-22T06:46:07.588Z,48.28
2023-05-22T06:48:35.947Z,48.39
2023-05-22T06:51:03.217Z,47.25
2023-05-22T06:53:30.344Z,45.86
2023-05-22T06:55:57.583Z,43.85
2023-05-22T06:58:24.516Z,41.99
2023-05-22T07:00:51.584Z,40.44
2023-05-22T07:03:18.580Z,38.49
2023-05-22T07:05:45.608Z,39.25
2023-05-22T07:08:12.670Z,39.49
2023-05-22T07:10:39.674Z,40.24
2023-05-22T07:13:06.872Z,38.69
2023-05-22T07:15:33.918Z,36.07
2023-05-22T07:18:01.001Z,35.62
2023-05-22T07:20:28.230Z,35.62
2023-05-22T07:22:55.164Z,34.31
2023-05-22T07:25:22.026Z,34.86
2023-05-22T07:27:49.023Z,33.75
2023-05-22T07:30:16.259Z,32.39
2023-05-22T07:32:43.123Z,31.25
2023-05-22T07:35:11.151Z,31.52
2023-05-22T07:37:38.706Z,32.02
2023-05-22T07:40:12.720Z,31.50
2023-05-22T07:42:39.749Z,31.01
2023-05-22T07:45:07.315Z,31.27
2023-05-22T07:47:34.514Z,29.11
2023-05-22T07:50:04.613Z,27.52
2023-05-22T07:52:34.181Z,28.92
2023-05-22T07:55:01.160Z,27.88
2023-05-22T07:57:29.808Z,26.98
2023-05-22T07:59:57.424Z,28.18
2023-05-22T08:02:24.564Z,28.83
2023-05-22T08:04:54.837Z,26.88
2023-05-22T08:07:22.120Z,26.08
2023-05-22T08:09:49.001Z,24.28
2023-05-22T08:12:16.002Z,23.42
2023-05-22T08:14:43.018Z,22.94
2023-05-22T08:17:10.051Z,23.41
2023-05-22T08:19:36.996Z,21.19
2023-05-22T08:22:04.151Z,22.15
2023-05-22T08:24:31.680Z,21.14
2023-05-22T08:26:59.222Z,20.23
2023-05-22T08:29:26.207Z,21.86
2023-05-22T08:31:54.205Z,20.97
2023-05-22T08:34:21.486Z,20.85
2023-05-22T08:36:50.085Z,19.35
2023-05-22T08:39:19.419Z,19.19
2023-05-22T08:41:47.784Z,18.78
2023-05-22T08:44:14.816Z,18.33
2023-05-22T08:46:45.902Z,20.15
2023-05-22T08:49:13.672Z,16.80
2023-05-22T08:51:45.040Z,20.52
2023-05-22T08:54:12.112Z,18.57
2023-05-22T08:56:52.888Z,19.41
2023-05-22T08:59:23.545Z,18.34
2023-05-22T09:01:52.709Z,18.84
2023-05-22T09:04:23.996Z,17.83
2023-05-22T09:06:51.969Z,17.48
2023-05-22T09:09:19.062Z,18.38
2023-05-22T09:11:46.439Z,19.88
2023-05-22T09:14:13.428Z,21.86
2023-05-22T09:16:47.719Z,20.48
2023-05-22T09:19:16.192Z,18.11
2023-05-22T09:21:44.614Z,18.57
2023-05-22T09:24:12.320Z,19.21
2023-05-22T09:26:39.829Z,17.90
2023-05-22T09:29:11.288Z,13.44
2023-05-22T09:31:43.082Z,14.87
2023-05-22T09:34:17.900Z,13.31
2023-05-22T09:36:44.844Z,14.13
2023-05-22T09:39:11.929Z,13.85
2023-05-22T09:41:40.314Z,17.55
2023-05-22T09:44:17.042Z,17.02
2023-05-22T09:46:48.023Z,14.61
2023-05-22T09:49:16.685Z,15.27
2023-05-22T09:51:48.519Z,16.37
2023-05-22T09:54:16.613Z,16.33
2023-05-22T09:56:45.029Z,17.69
2023-05-22T09:59:14.027Z,17.66
2023-05-22T10:01:42.979Z,18.02
2023-05-22T10:04:14.566Z,18.42
2023-05-22T10:06:43.250Z,20.85
2023-05-22T10:09:19.253Z,22.31
2023-05-22T10:11:49.733Z,22.71
2023-05-22T10:14:17.146Z,23.59
2023-05-22T10:16:45.577Z,22.98
2023-05-22T10:19:14.107Z,23.90
2023-05-22T10:21:42.206Z,26.64
2023-05-22T10:24:10.285Z,26.43
2023-05-22T10:26:39.072Z,26.39
2023-05-22T10:29:13.022Z,26.28
2023-05-22T10:32:03.086Z,26.40
2023-05-22T10:34:33.433Z,25.47
2023-05-22T10:37:22.300Z,25.22
2023-05-22T10:40:05.440Z,24.06
2023-05-22T10:42:32.903Z,23.43
2023-05-22T10:45:04.664Z,24.54
2023-05-22T10:47:34.235Z,22.80
2023-05-22T10:50:12.184Z,22.46
2023-05-22T10:52:40.841Z,22.65
2023-05-22T10:55:09.787Z,21.63
2023-05-22T10:57:40.238Z,22.66
2023-05-22T11:00:16.571Z,22.95
2023-05-22T11:02:45.717Z,22.86
2023-05-22T11:05:22.001Z,22.57
2023-05-22T11:07:49.493Z,21.89
2023-05-22T11:10:27.165Z,21.13
2023-05-22T11:13:12.309Z,19.00
2023-05-22T11:15:46.026Z,19.06
2023-05-22T11:18:14.840Z,21.45
2023-05-22T11:20:42.368Z,23.09
2023-05-22T11:23:11.446Z,21.21
2023-05-22T11:25:41.542Z,20.13
2023-05-22T11:28:10.857Z,18.03
2023-05-22T11:30:38.982Z,18.39
2023-05-22T11:33:06.982Z,18.16
2023-05-22T11:35:34.713Z,19.12
2023-05-22T11:38:05.534Z,20.99
2023-05-22T11:40:32.578Z,21.84
2023-05-22T11:42:59.810Z,23.35
2023-05-22T11:45:27.322Z,23.50
2023-05-22T11:47:54.431Z,22.75
2023-05-22T11:50:40.270Z,21.93
2023-05-22T11:53:08.801Z,20.57
2023-05-22T11:55:36.020Z,22.34
2023-05-22T11:58:03.114Z,22.01
2023-05-22T12:00:31.787Z,21.55
2023-05-22T12:02:59.462Z,20.43
2023-05-22T12:05:26.665Z,21.29
2023-05-22T12:07:53.809Z,21.68
2023-05-22T12:10:20.854Z,22.37
2023-05-22T12:12:48.318Z,23.57
2023-05-22T12:15:20.563Z,22.76
2023-05-22T12:17:47.806Z,22.44
2023-05-22T12:20:15.023Z,24.04
2023-05-22T12:22:43.654Z,23.03
2023-05-22T12:25:18.215Z,23.04
2023-05-22T12:27:46.302Z,23.09
2023-05-22T12:30:14.702Z,22.64
2023-05-22T12:32:47.177Z,24.17
2023-05-22T12:35:18.110Z,22.98
2023-05-22T12:37:49.884Z,22.88
2023-05-22T12:40:17.020Z,22.30
2023-05-22T12:42:45.351Z,22.21
2023-05-22T12:45:13.472Z,23.33
2023-05-22T12:47:40.760Z,23.60
2023-05-22T12:50:08.609Z,23.70
2023-05-22T12:52:36.666Z,23.81
2023-05-22T12:55:03.884Z,23.39
2023-05-22T12:57:30.709Z,25.01
2023-05-22T12:59:57.629Z,24.92
2023-05-22T13:02:24.811Z,25.48
2023-05-22T13:04:54.629Z,26.25
2023-05-22T13:07:21.831Z,25.49
2023-05-22T13:09:48.695Z,25.73
2023-05-22T13:12:15.972Z,26.17
2023-05-22T13:14:43.053Z,27.22
2023-05-22T13:17:10.896Z,26.21
2023-05-22T13:19:38.396Z,26.82
2023-05-22T13:22:07.595Z,26.73
2023-05-22T13:24:34.646Z,26.76
2023-05-22T13:27:01.948Z,26.63
2023-05-22T13:29:29.075Z,26.81
2023-05-22T13:31:55.992Z,26.03
2023-05-22T13:34:23.206Z,26.40
2023-05-22T13:36:50.893Z,26.89
2023-05-22T13:39:18.127Z,26.67
2023-05-22T13:41:48.085Z,26.00
2023-05-22T13:44:15.121Z,25.76
2023-05-22T13:46:42.146Z,25.75
2023-05-22T13:49:09.200Z,25.53
2023-05-22T13:51:36.488Z,25.67
2023-05-22T13:54:04.011Z,26.39
2023-05-22T13:56:31.436Z,26.56
2023-05-22T13:58:58.427Z,26.39
2023-05-22T14:01:25.293Z,25.79
2023-05-22T14:03:52.510Z,26.45
2023-05-22T14:06:21.264Z,26.21
2023-05-22T14:08:48.851Z,25.22
2023-05-22T14:11:15.735Z,25.42
2023-05-22T14:13:43.265Z,25.53
2023-05-22T14:16:10.232Z,25.54
2023-05-22T14:18:37.624Z,25.94
2023-05-22T14:21:05.004Z,26.75
2023-05-22T14:23:32.145Z,25.17
2023-05-22T14:25:59.286Z,25.77
2023-05-22T14:28:26.249Z,26.15
2023-05-22T14:30:56.359Z,26.37
2023-05-22T14:33:23.825Z,26.57
2023-05-22T14:35:55.104Z,26.41
2023-05-22T14:38:22.152Z,25.99
2023-05-22T14:40:49.143Z,26.49
2023-05-22T14:43:16.206Z,27.61
2023-05-22T14:45:43.912Z,27.72
2023-05-22T14:48:11.957Z,28.87
2023-05-22T14:50:38.837Z,29.26
2023-05-22T14:53:05.917Z,29.98
2023-05-22T14:55:32.781Z,28.72
2023-05-22T14:57:59.855Z,29.93
2023-05-22T15:00:27.213Z,30.37
2023-05-22T15:02:54.149Z,33.66
2023-05-22T15:05:21.149Z,38.50
2023-05-22T15:07:49.898Z,43.21
2023-05-22T15:10:18.486Z,48.62
2023-05-22T15:12:45.760Z,54.16
2023-05-22T15:15:12.615Z,61.26
2023-05-22T15:17:41.830Z,64.33
2023-05-22T15:20:10.824Z,67.45
2023-05-22T15:22:37.861Z,66.45
2023-05-22T15:25:11.969Z,68.15
2023-05-22T15:27:39.782Z,68.96
2023-05-22T15:30:09.932Z,64.12
2023-05-22T15:32:37.808Z,65.41
2023-05-22T15:35:05.898Z,67.87
2023-05-22T15:37:34.319Z,68.04
2023-05-22T15:40:01.945Z,69.87
2023-05-22T15:42:29.210Z,71.17
2023-05-22T15:44:56.341Z,74.95
2023-05-22T15:47:23.365Z,75.89
2023-05-22T15:49:50.414Z,76.64
2023-05-22T15:52:17.608Z,74.81
2023-05-22T15:54:44.568Z,74.34
2023-05-22T15:57:11.674Z,75.58
2023-05-22T15:59:38.694Z,75.76
2023-05-22T16:02:05.758Z,76.04
2023-05-22T16:04:33.846Z,75.59
2023-05-22T16:07:04.290Z,74.98
2023-05-22T16:09:32.747Z,75.91
2023-05-22T16:12:00.192Z,77.15
2023-05-22T16:14:27.192Z,76.66
2023-05-22T16:16:54.228Z,76.06
2023-05-22T16:19:21.461Z,75.86
2023-05-22T16:21:48.491Z,76.23
2023-05-22T16:24:15.295Z,76.79
2023-05-22T16:26:42.316Z,76.81
2023-05-22T16:29:10.211Z,76.70
2023-05-22T16:31:37.479Z,76.56
2023-05-22T16:34:05.961Z,77.25
2023-05-22T16:36:33.095Z,74.84
2023-05-22T16:39:00.144Z,77.43
2023-05-22T16:41:27.865Z,80.55
2023-05-22T16:43:55.015Z,79.68
2023-05-22T16:46:22.213Z,81.72
2023-05-22T16:48:49.263Z,80.79
2023-05-22T16:51:16.337Z,82.31
2023-05-22T16:53:43.452Z,82.15
2023-05-22T16:56:10.623Z,83.06
2023-05-22T16:58:37.768Z,83.54
2023-05-22T17:01:06.671Z,83.54
2023-05-22T17:03:36.475Z,84.09
2023-05-22T17:06:04.144Z,84.43
2023-05-22T17:08:32.487Z,84.24
2023-05-22T17:10:59.455Z,84.15
2023-05-22T17:13:26.507Z,83.50
2023-05-22T17:15:53.441Z,80.72
2023-05-22T17:18:21.404Z,79.81
2023-05-22T17:20:54.209Z,78.51
2023-05-22T17:23:21.141Z,79.20
2023-05-22T17:25:48.657Z,78.98
2023-05-22T17:28:15.757Z,78.43
2023-05-22T17:30:44.396Z,78.35
2023-05-22T17:33:12.382Z,78.83
2023-05-22T17:35:39.660Z,78.51
2023-05-22T17:38:08.631Z,77.97
2023-05-22T17:40:44.743Z,77.63
2023-05-22T17:43:13.084Z,77.65
2023-05-22T17:45:40.120Z,76.96
2023-05-22T17:48:08.305Z,76.66
2023-05-22T17:50:35.634Z,77.71
2023-05-22T17:53:02.605Z,76.83
2023-05-22T17:55:29.752Z,75.54
2023-05-22T17:57:56.894Z,75.36
2023-05-22T18:00:23.929Z,74.38
2023-05-22T18:02:50.729Z,75.51
2023-05-22T18:05:17.900Z,74.47
2023-05-22T18:07:44.685Z,75.21
2023-05-22T18:10:11.646Z,74.54
2023-05-22T18:12:38.694Z,75.28
2023-05-22T18:15:08.727Z,75.63
2023-05-22T18:17:35.892Z,75.52
2023-05-22T18:20:04.373Z,75.08
2023-05-22T18:22:31.434Z,74.37
2023-05-22T18:24:58.522Z,73.90
2023-05-22T18:27:25.777Z,75.49
2023-05-22T18:29:53.330Z,75.92
2023-05-22T18:32:20.306Z,76.39
2023-05-22T18:34:48.800Z,75.19
2023-05-22T18:37:16.775Z,77.35
2023-05-22T18:39:43.899Z,76.50
2023-05-22T18:42:11.277Z,76.23
2023-05-22T18:44:38.209Z,77.30
2023-05-22T18:47:05.257Z,77.19
2023-05-22T18:49:32.634Z,77.26
2023-05-22T18:52:00.031Z,76.64
2023-05-22T18:54:27.408Z,76.70
2023-05-22T18:56:54.367Z,76.06
2023-05-22T18:59:21.344Z,75.14
2023-05-22T19:01:48.513Z,74.29
2023-05-22T19:04:15.568Z,73.76
2023-05-22T19:06:42.650Z,74.48
2023-05-22T19:09:12.721Z,74.59
2023-05-22T19:11:39.636Z,75.51
2023-05-22T19:14:06.702Z,76.26
2023-05-22T19:16:33.666Z,80.02
2023-05-22T19:19:00.840Z,82.59
2023-05-22T19:21:27.830Z,83.19
2023-05-22T19:23:54.820Z,82.70
2023-05-22T19:26:22.445Z,86.17
2023-05-22T19:28:49.623Z,86.46
2023-05-22T19:31:16.879Z,86.34
2023-05-22T19:33:44.254Z,86.56
2023-05-22T19:36:11.474Z,87.27
2023-05-22T19:38:38.510Z,88.90
2023-05-22T19:41:05.510Z,86.95
2023-05-22T19:43:32.846Z,88.33
2023-05-22T19:46:00.290Z,88.76
2023-05-22T19:48:27.333Z,90.00
2023-05-22T19:50:54.302Z,90.48
2023-05-22T19:53:21.644Z,90.72
2023-05-22T19:55:49.176Z,90.88
2023-05-22T19:58:17.208Z,91.27
2023-05-22T20:00:44.337Z,90.91
2023-05-22T20:03:11.976Z,90.74
2023-05-22T20:05:39.260Z,91.11
2023-05-22T20:08:07.712Z,90.40
2023-05-22T20:10:34.668Z,90.25
2023-05-22T20:13:01.709Z,89.83
2023-05-22T20:15:28.827Z,90.33
2023-05-22T20:17:55.734Z,90.03
2023-05-22T20:20:24.886Z,89.61
2023-05-22T20:22:54.126Z,90.17
2023-05-22T20:25:21.756Z,90.95
2023-05-22T20:27:48.711Z,90.45
2023-05-22T20:30:16.214Z,90.29
2023-05-22T20:32:45.862Z,89.58
2023-05-22T20:35:20.354Z,90.03
2023-05-22T20:37:47.753Z,90.19
2023-05-22T20:40:15.269Z,90.09
2023-05-22T20:42:46.369Z,89.24
2023-05-22T20:45:15.318Z,87.99
2023-05-22T20:47:43.352Z,88.16
2023-05-22T20:50:11.392Z,89.18
2023-05-22T20:52:38.614Z,89.28
2023-05-22T20:55:06.926Z,89.35
2023-05-22T20:57:34.749Z,89.52
2023-05-22T21:00:02.141Z,89.37
2023-05-22T21:02:29.306Z,89.78
2023-05-22T21:04:56.275Z,89.72
2023-05-22T21:07:23.333Z,89.71
2023-05-22T21:09:50.319Z,90.42
2023-05-22T21:12:20.125Z,90.59
2023-05-22T21:14:47.310Z,89.93
2023-05-22T21:17:14.500Z,90.53
2023-05-22T21:19:41.464Z,89.22
2023-05-22T21:22:09.488Z,90.28
2023-05-22T21:24:36.381Z,90.86
2023-05-22T21:27:03.525Z,90.54
2023-05-22T21:29:30.702Z,90.73
2023-05-22T21:31:57.712Z,90.33
2023-05-22T21:34:24.688Z,90.77
2023-05-22T21:36:51.520Z,90.76
2023-05-22T21:39:18.418Z,91.20
2023-05-22T21:41:45.745Z,90.59
2023-05-22T21:44:13.686Z,91.35
2023-05-22T21:46:40.624Z,91.87
2023-05-22T21:49:09.628Z,91.56
2023-05-22T21:51:37.726Z,92.06
2023-05-22T21:54:04.682Z,92.11
2023-05-22T21:56:31.511Z,91.97
2023-05-22T21:58:58.437Z,91.92
2023-05-22T22:01:25.479Z,91.43
2023-05-22T22:03:52.903Z,91.23
2023-05-22T22:06:19.998Z,91.59
2023-05-22T22:08:47.355Z,91.21
2023-05-22T22:11:14.403Z,91.95
2023-05-22T22:13:41.398Z,91.51
2023-05-22T22:16:08.495Z,90.71
2023-05-22T22:18:37.121Z,90.99
2023-05-22T22:21:04.673Z,91.48
2023-05-22T22:23:31.646Z,91.04
2023-05-22T22:25:58.574Z,91.07
2023-05-22T22:28:25.897Z,91.33
2023-05-22T22:30:55.360Z,91.00
2023-05-22T22:33:23.094Z,91.02
2023-05-22T22:35:50.130Z,91.08
2023-05-22T22:38:17.089Z,90.63
2023-05-22T22:40:44.016Z,90.98
2023-05-22T22:43:11.629Z,90.84
2023-05-22T22:45:40.165Z,91.36
2023-05-22T22:48:07.437Z,91.58
2023-05-22T22:50:35.632Z,91.58
2023-05-22T22:53:02.436Z,91.54
2023-05-22T22:55:29.530Z,91.64
2023-05-22T22:57:56.686Z,91.25
2023-05-22T23:00:24.042Z,91.47
2023-05-22T23:02:51.058Z,90.90
2023-05-22T23:05:20.495Z,90.44
2023-05-22T23:07:48.242Z,90.11
2023-05-22T23:10:15.366Z,89.08
2023-05-22T23:12:42.252Z,89.16
2023-05-22T23:15:11.246Z,89.03
2023-05-22T23:17:38.522Z,86.75
2023-05-22T23:20:06.261Z,87.66
2023-05-22T23:22:33.044Z,87.91
2023-05-22T23:24:59.910Z,87.98
2023-05-22T23:27:27.095Z,87.90
2023-05-22T23:29:54.267Z,88.11
2023-05-22T23:32:22.033Z,88.46
2023-05-22T23:34:49.064Z,87.32
2023-05-22T23:37:16.297Z,86.03
2023-05-22T23:39:43.217Z,85.95
2023-05-22T23:42:11.274Z,86.82
2023-05-22T23:44:38.260Z,86.54
2023-05-22T23:47:06.813Z,86.23
2023-05-22T23:49:34.289Z,87.62
2023-05-22T23:52:01.304Z,87.74
2023-05-22T23:54:28.292Z,87.76
2023-05-22T23:56:55.464Z,87.77
2023-05-22T23:59:22.395Z,87.74
